Time;durP1;ratioP1;P1;durP2;ratioP2;P2;SDS_P1;SDS_P2;PMS_P1;PMS_P2;Temp;Humidity;BMP_temperature;BMP_pressure;BME280_temperature;BME280_humidity;BME280_pressure;Samples;Min_cycle;Max_cycle;Signal;HPM_P1;HPM_P2
2022/08/26 00:00:42;;;;;;;14.73;13.23;;;;;;;;;;5085059;28;20039;-75
2022/08/26 00:03:08;;;;;;;14.95;13.75;;;;;;;;;;5086198;28;20410;-75
2022/08/26 00:05:34;;;;;;;15.43;13.93;;;;;;;;;;5084393;28;20032;-75
2022/08/26 00:08:00;;;;;;;15.07;13.70;;;;;;;;;;5087672;28;20530;-75
2022/08/26 00:10:26;;;;;;;14.30;13.05;;;;;;;;;;5086102;28;20042;-75
2022/08/26 00:12:51;;;;;;;14.65;13.20;;;;;;;;;;5087811;28;20036;-75
2022/08/26 00:15:20;;;;;;;14.07;12.90;;;;;;;;;;5082211;28;20114;-75
2022/08/26 00:17:47;;;;;;;14.07;12.98;;;;;;;;;;5087335;28;20716;-75
2022/08/26 00:20:17;;;;;;;15.32;14.00;;;;;;;;;;5086868;28;20052;-75
2022/08/26 00:22:43;;;;;;;14.52;13.18;;;;;;;;;;5084987;28;20085;-75
2022/08/26 00:25:09;;;;;;;14.80;13.60;;;;;;;;;;5087546;28;20047;-75
2022/08/26 00:27:34;;;;;;;14.75;13.55;;;;;;;;;;5087600;28;20040;-75
2022/08/26 00:30:03;;;;;;;16.25;13.07;;;;;;;;;;5087534;28;20027;-75
2022/08/26 00:32:29;;;;;;;14.45;13.27;;;;;;;;;;5079784;28;20028;-74
2022/08/26 00:34:54;;;;;;;14.98;13.50;;;;;;;;;;5087224;28;20032;-75
2022/08/26 00:37:20;;;;;;;14.93;13.63;;;;;;;;;;5085555;28;20038;-75
2022/08/26 00:39:46;;;;;;;15.20;13.82;;;;;;;;;;5085998;28;20112;-75
2022/08/26 00:42:12;;;;;;;15.10;13.75;;;;;;;;;;5087030;28;20028;-75
2022/08/26 00:44:38;;;;;;;14.55;13.23;;;;;;;;;;5087466;28;20039;-75
2022/08/26 00:47:19;;;;;;;13.95;12.93;;;;;;;;;;5080615;28;20035;-74
2022/08/26 00:49:46;;;;;;;14.55;13.30;;;;;;;;;;5083163;28;20495;-75
2022/08/26 00:52:17;;;;;;;15.05;13.65;;;;;;;;;;5086618;28;20053;-75
2022/08/26 00:54:52;;;;;;;14.80;13.50;;;;;;;;;;5084437;28;20101;-75
2022/08/26 00:57:19;;;;;;;14.95;13.60;;;;;;;;;;5086529;28;20455;-75
2022/08/26 00:59:48;;;;;;;16.48;13.77;;;;;;;;;;5087601;28;20506;-75
2022/08/26 01:02:14;;;;;;;15.60;14.07;;;;;;;;;;5086350;28;20403;-74
2022/08/26 01:04:41;;;;;;;19.00;14.57;;;;;;;;;;5088199;28;20039;-75
2022/08/26 01:07:07;;;;;;;16.15;14.57;;;;;;;;;;5091159;28;20071;-75
2022/08/26 01:09:33;;;;;;;15.93;14.25;;;;;;;;;;5087875;28;20495;-75
2022/08/26 01:12:01;;;;;;;18.17;14.98;;;;;;;;;;5090643;28;20055;-74
2022/08/26 01:14:31;;;;;;;16.55;14.77;;;;;;;;;;5091091;28;20036;-75
2022/08/26 01:16:57;;;;;;;15.88;14.27;;;;;;;;;;5090917;28;20591;-75
2022/08/26 01:19:28;;;;;;;16.00;14.45;;;;;;;;;;5087377;28;20521;-75
2022/08/26 01:22:01;;;;;;;16.45;14.70;;;;;;;;;;5085094;28;20435;-75
2022/08/26 01:24:29;;;;;;;19.10;14.60;;;;;;;;;;5089574;28;20040;-75
2022/08/26 01:27:08;;;;;;;15.85;14.50;;;;;;;;;;5087850;28;20530;-75
2022/08/26 01:29:36;;;;;;;15.68;14.27;;;;;;;;;;5086636;28;20039;-75
2022/08/26 01:32:03;;;;;;;16.27;14.70;;;;;;;;;;5086188;28;20040;-75
2022/08/26 01:34:34;;;;;;;16.58;14.98;;;;;;;;;;5087985;28;20054;-75
2022/08/26 01:37:31;;;;;;;15.73;14.40;;;;;;;;;;5088898;28;20115;-75
2022/08/26 01:39:57;;;;;;;16.58;14.75;;;;;;;;;;5088255;28;20040;-75
2022/08/26 01:42:24;;;;;;;15.57;14.10;;;;;;;;;;5089939;28;20040;-75
2022/08/26 01:44:59;;;;;;;15.52;14.05;;;;;;;;;;5084958;28;20625;-75
2022/08/26 01:47:27;;;;;;;15.55;14.18;;;;;;;;;;5086474;28;20031;-75
2022/08/26 01:49:55;;;;;;;15.82;14.23;;;;;;;;;;5090496;28;20032;-75
2022/08/26 01:52:25;;;;;;;16.17;14.65;;;;;;;;;;5083625;28;20028;-75
2022/08/26 01:54:52;;;;;;;17.17;15.45;;;;;;;;;;5089061;28;20071;-75
2022/08/26 01:57:19;;;;;;;16.75;15.18;;;;;;;;;;5090225;28;20035;-75
2022/08/26 01:59:46;;;;;;;16.38;14.77;;;;;;;;;;5087683;28;20028;-75
2022/08/26 02:02:12;;;;;;;17.02;15.25;;;;;;;;;;5087607;28;20064;-75
2022/08/26 02:04:48;;;;;;;16.52;15.13;;;;;;;;;;5090115;28;20505;-74
2022/08/26 02:07:16;;;;;;;16.70;15.10;;;;;;;;;;5088720;28;20032;-74
2022/08/26 02:09:42;;;;;;;16.60;14.95;;;;;;;;;;5082603;28;20028;-74
2022/08/26 02:12:10;;;;;;;16.02;14.38;;;;;;;;;;5089070;28;20038;-74
2022/08/26 02:14:41;;;;;;;17.02;15.50;;;;;;;;;;5090121;28;20066;-75
2022/08/26 02:17:09;;;;;;;18.60;15.27;;;;;;;;;;5089551;28;20036;-75
2022/08/26 02:19:39;;;;;;;16.55;15.07;;;;;;;;;;5075343;28;20569;-75
2022/08/26 02:22:12;;;;;;;16.38;14.98;;;;;;;;;;5087744;28;20032;-75
2022/08/26 02:24:49;;;;;;;16.85;15.27;;;;;;;;;;5082710;28;20032;-74
2022/08/26 02:27:35;;;;;;;16.65;15.07;;;;;;;;;;5085824;28;20032;-75
2022/08/26 02:30:15;;;;;;;17.27;15.63;;;;;;;;;;5087113;28;20384;-75
2022/08/26 02:32:40;;;;;;;17.58;15.95;;;;;;;;;;5088049;28;20040;-75
2022/08/26 02:35:08;;;;;;;16.80;15.07;;;;;;;;;;5088042;28;20047;-75
2022/08/26 02:37:34;;;;;;;18.98;16.45;;;;;;;;;;5088975;28;20483;-75
2022/08/26 02:40:00;;;;;;;16.88;15.40;;;;;;;;;;5089245;28;20032;-75
2022/08/26 02:42:25;;;;;;;15.75;14.45;;;;;;;;;;5081845;28;20045;-75
2022/08/26 02:44:51;;;;;;;15.65;14.38;;;;;;;;;;5083521;28;20032;-75
2022/08/26 02:47:16;;;;;;;15.65;14.18;;;;;;;;;;5087185;28;20051;-75
2022/08/26 02:49:43;;;;;;;15.73;14.43;;;;;;;;;;5088968;28;20035;-75
2022/08/26 02:52:09;;;;;;;16.05;14.75;;;;;;;;;;5085293;28;20032;-75
2022/08/26 02:54:35;;;;;;;16.15;14.85;;;;;;;;;;5086441;28;20060;-75
2022/08/26 02:57:01;;;;;;;16.65;15.02;;;;;;;;;;5088867;28;20075;-75
2022/08/26 02:59:28;;;;;;;16.20;14.85;;;;;;;;;;5088102;28;20032;-74
2022/08/26 03:01:54;;;;;;;15.00;13.82;;;;;;;;;;5084171;28;20064;-74
2022/08/26 03:04:20;;;;;;;15.80;14.48;;;;;;;;;;5080334;28;20040;-74
2022/08/26 03:06:49;;;;;;;16.25;14.90;;;;;;;;;;5087612;28;20111;-76
2022/08/26 03:09:17;;;;;;;16.20;14.63;;;;;;;;;;5086434;28;20042;-74
2022/08/26 03:11:44;;;;;;;16.15;14.75;;;;;;;;;;5086845;28;20035;-74
2022/08/26 03:14:10;;;;;;;17.08;15.68;;;;;;;;;;5072428;28;20427;-75
2022/08/26 03:16:36;;;;;;;15.90;14.55;;;;;;;;;;5083792;28;20050;-75
2022/08/26 03:19:05;;;;;;;16.58;15.07;;;;;;;;;;5088032;28;20038;-75
2022/08/26 03:21:30;;;;;;;15.80;14.60;;;;;;;;;;5086103;28;20035;-75
2022/08/26 03:23:57;;;;;;;16.58;14.98;;;;;;;;;;5083587;28;20438;-75
2022/08/26 03:26:23;;;;;;;16.73;15.32;;;;;;;;;;5085746;28;20059;-75
2022/08/26 03:31:32;;;;;;;16.08;14.60;;;;;;;;;;5082595;28;20136;-75
2022/08/26 03:33:58;;;;;;;15.88;14.57;;;;;;;;;;5086479;28;20483;-75
2022/08/26 03:36:24;;;;;;;16.05;14.60;;;;;;;;;;5087770;28;20032;-75
2022/08/26 03:38:49;;;;;;;15.68;14.38;;;;;;;;;;5086525;28;20451;-75
2022/08/26 03:41:16;;;;;;;15.98;14.70;;;;;;;;;;5080145;28;20071;-75
2022/08/26 03:43:42;;;;;;;16.42;14.98;;;;;;;;;;5075869;28;20040;-75
2022/08/26 03:46:10;;;;;;;16.15;14.82;;;;;;;;;;5087679;28;20032;-75
2022/08/26 03:48:36;;;;;;;16.83;15.40;;;;;;;;;;5085762;28;20088;-75
2022/08/26 03:51:03;;;;;;;15.25;14.07;;;;;;;;;;5082935;28;20027;-75
2022/08/26 03:53:29;;;;;;;15.77;14.43;;;;;;;;;;5088113;28;20036;-75
2022/08/26 03:55:54;;;;;;;16.40;15.00;;;;;;;;;;5075445;28;20036;-75
2022/08/26 03:58:22;;;;;;;15.98;14.52;;;;;;;;;;5083455;28;20027;-75
2022/08/26 04:00:50;;;;;;;16.60;15.30;;;;;;;;;;5084421;28;20035;-75
2022/08/26 04:03:56;;;;;;;17.35;15.70;;;;;;;;;;5081775;28;20143;-75
2022/08/26 04:06:02;;;;;;;16.40;15.10;;;;;;;;;;5085015;28;20040;-75
2022/08/26 04:08:28;;;;;;;16.38;14.73;;;;;;;;;;5086744;28;20028;-75
2022/08/26 04:10:53;;;;;;;16.42;14.85;;;;;;;;;;5086902;28;20375;-75
2022/08/26 04:13:19;;;;;;;17.35;15.20;;;;;;;;;;5081328;28;20810;-76
2022/08/26 04:15:44;;;;;;;17.73;15.07;;;;;;;;;;5087123;28;20044;-76
2022/08/26 04:18:10;;;;;;;18.45;15.32;;;;;;;;;;5087856;28;20035;-76
2022/08/26 04:20:35;;;;;;;22.17;15.55;;;;;;;;;;5078845;28;20111;-76
2022/08/26 04:23:01;;;;;;;19.58;15.20;;;;;;;;;;5080758;28;20032;-76
2022/08/26 04:25:27;;;;;;;16.23;14.88;;;;;;;;;;5087933;28;20039;-76
2022/08/26 04:27:53;;;;;;;17.05;15.55;;;;;;;;;;5084921;28;20036;-76
2022/08/26 04:30:19;;;;;;;16.90;15.30;;;;;;;;;;5083956;28;20036;-75
2022/08/26 04:32:45;;;;;;;16.25;14.88;;;;;;;;;;5083105;28;20028;-77
2022/08/26 04:35:10;;;;;;;16.88;15.18;;;;;;;;;;5087135;28;20032;-77
2022/08/26 04:37:36;;;;;;;17.10;15.40;;;;;;;;;;5090164;28;20048;-77
2022/08/26 04:40:03;;;;;;;17.50;15.88;;;;;;;;;;5087378;28;20028;-75
2022/08/26 04:42:28;;;;;;;17.95;16.25;;;;;;;;;;5091747;28;20117;-76
2022/08/26 04:44:54;;;;;;;18.15;16.65;;;;;;;;;;5090430;28;20502;-75
2022/08/26 04:47:19;;;;;;;17.67;15.98;;;;;;;;;;5091051;28;20487;-75
2022/08/26 04:49:45;;;;;;;17.08;15.65;;;;;;;;;;5085707;28;20108;-75
2022/08/26 04:52:10;;;;;;;17.88;16.20;;;;;;;;;;5091294;28;20062;-76
2022/08/26 04:54:36;;;;;;;16.92;15.32;;;;;;;;;;5090991;28;20059;-76
2022/08/26 04:57:02;;;;;;;16.50;15.02;;;;;;;;;;5087580;28;20397;-76
2022/08/26 04:59:28;;;;;;;17.45;15.85;;;;;;;;;;5090273;28;20057;-76
2022/08/26 05:01:58;;;;;;;16.48;15.18;;;;;;;;;;5091515;28;20048;-76
2022/08/26 05:04:24;;;;;;;17.33;15.82;;;;;;;;;;5088900;28;20427;-76
2022/08/26 05:06:49;;;;;;;16.92;15.52;;;;;;;;;;5091644;28;20036;-76
2022/08/26 05:09:17;;;;;;;16.63;15.05;;;;;;;;;;5091433;28;20089;-76
2022/08/26 05:11:44;;;;;;;16.40;15.00;;;;;;;;;;5091044;28;20138;-76
2022/08/26 05:14:10;;;;;;;16.50;15.02;;;;;;;;;;5089544;28;20502;-75
2022/08/26 05:16:36;;;;;;;15.40;14.20;;;;;;;;;;5086422;28;20028;-75
2022/08/26 05:19:03;;;;;;;15.90;14.60;;;;;;;;;;5091020;28;20054;-76
2022/08/26 05:21:28;;;;;;;15.50;14.30;;;;;;;;;;5087415;28;20028;-76
2022/08/26 05:23:55;;;;;;;15.82;14.57;;;;;;;;;;5085657;28;20518;-76
2022/08/26 05:26:26;;;;;;;15.82;14.52;;;;;;;;;;5088296;28;20031;-76
2022/08/26 05:28:52;;;;;;;15.73;14.43;;;;;;;;;;5087519;28;20037;-76
2022/08/26 05:31:22;;;;;;;15.77;14.38;;;;;;;;;;5088499;28;20569;-75
2022/08/26 05:33:47;;;;;;;;;;;;;;;;;;5086834;28;20044;-75
2022/08/26 05:36:16;;;;;;;15.65;14.45;;;;;;;;;;5090645;28;19919;-76
2022/08/26 05:38:42;;;;;;;16.33;15.00;;;;;;;;;;5088689;28;20032;-76
2022/08/26 05:41:23;;;;;;;15.80;14.32;;;;;;;;;;5087450;28;20028;-76
2022/08/26 05:43:51;;;;;;;15.10;13.80;;;;;;;;;;5089393;28;20542;-76
2022/08/26 05:46:16;;;;;;;15.45;14.20;;;;;;;;;;5090438;28;20036;-76
2022/08/26 05:48:42;;;;;;;15.00;13.80;;;;;;;;;;5086001;28;20062;-76
2022/08/26 05:51:10;;;;;;;15.75;14.30;;;;;;;;;;5085596;28;20035;-76
2022/08/26 05:53:37;;;;;;;14.38;13.32;;;;;;;;;;5090237;28;20040;-76
2022/08/26 05:56:04;;;;;;;15.32;14.00;;;;;;;;;;5089927;28;20039;-76
2022/08/26 05:58:32;;;;;;;14.85;13.65;;;;;;;;;;5088020;28;20044;-75
2022/08/26 06:01:06;;;;;;;15.38;13.95;;;;;;;;;;5091513;28;20031;-76
2022/08/26 06:03:35;;;;;;;14.88;13.68;;;;;;;;;;5090070;28;20113;-76
2022/08/26 06:06:07;;;;;;;13.45;12.45;;;;;;;;;;5088116;28;20093;-76
2022/08/26 06:08:33;;;;;;;16.65;14.07;;;;;;;;;;5090779;28;20060;-74
2022/08/26 06:11:01;;;;;;;14.52;13.27;;;;;;;;;;5088374;28;20117;-75
2022/08/26 06:13:28;;;;;;;15.70;14.30;;;;;;;;;;5079984;28;20063;-75
2022/08/26 06:15:55;;;;;;;15.35;13.75;;;;;;;;;;5084317;28;20542;-76
2022/08/26 06:18:29;;;;;;;15.50;14.00;;;;;;;;;;5089579;28;20031;-76
2022/08/26 06:20:55;;;;;;;15.27;13.27;;;;;;;;;;5087858;28;20024;-76
2022/08/26 06:26:05;;;;;;;14.75;13.65;;;;;;;;;;5089211;28;20046;-76
2022/08/26 06:28:30;;;;;;;14.88;13.55;;;;;;;;;;5089318;28;20032;-75
2022/08/26 06:30:56;;;;;;;15.15;13.65;;;;;;;;;;5084983;28;20024;-75
2022/08/26 06:33:23;;;;;;;14.75;13.55;;;;;;;;;;5087945;28;20039;-75
2022/08/26 06:35:49;;;;;;;14.65;13.43;;;;;;;;;;5088976;28;20036;-75
2022/08/26 06:38:16;;;;;;;13.52;12.52;;;;;;;;;;5088680;28;20487;-75
2022/08/26 06:40:50;;;;;;;13.88;12.68;;;;;;;;;;5086623;28;20108;-75
2022/08/26 06:43:18;;;;;;;15.35;14.05;;;;;;;;;;5088157;28;20127;-76
2022/08/26 06:45:44;;;;;;;13.45;12.30;;;;;;;;;;5088933;28;20568;-75
2022/08/26 06:48:14;;;;;;;14.15;13.02;;;;;;;;;;5088563;28;20038;-74
2022/08/26 06:50:41;;;;;;;13.35;12.35;;;;;;;;;;5082704;28;20028;-75
2022/08/26 06:53:08;;;;;;;13.57;12.48;;;;;;;;;;5087469;28;20048;-75
2022/08/26 06:55:44;;;;;;;14.88;13.45;;;;;;;;;;5088287;28;20034;-75
2022/08/26 06:58:11;;;;;;;14.00;13.00;;;;;;;;;;5084278;28;20093;-75
2022/08/26 07:00:37;;;;;;;15.13;13.82;;;;;;;;;;5083404;28;20038;-75
2022/08/26 07:03:04;;;;;;;14.68;13.15;;;;;;;;;;5088527;28;20441;-75
2022/08/26 07:05:31;;;;;;;14.20;13.02;;;;;;;;;;5085582;28;20548;-75
2022/08/26 07:07:57;;;;;;;14.25;13.25;;;;;;;;;;5085016;28;20074;-75
2022/08/26 07:10:24;;;;;;;15.10;13.57;;;;;;;;;;5088693;28;20457;-74
2022/08/26 07:12:50;;;;;;;13.48;12.48;;;;;;;;;;5085760;28;20380;-75
2022/08/26 07:15:16;;;;;;;14.25;13.25;;;;;;;;;;5088829;28;20479;-75
2022/08/26 07:17:42;;;;;;;13.70;12.70;;;;;;;;;;5082922;28;20097;-75
2022/08/26 07:20:08;;;;;;;14.20;13.18;;;;;;;;;;5077911;28;20032;-75
2022/08/26 07:22:35;;;;;;;14.15;12.90;;;;;;;;;;5087499;28;20120;-75
2022/08/26 07:25:06;;;;;;;13.95;12.77;;;;;;;;;;5085412;28;20050;-75
2022/08/26 07:27:33;;;;;;;13.27;12.25;;;;;;;;;;5085667;28;20407;-75
2022/08/26 07:29:59;;;;;;;13.40;12.40;;;;;;;;;;5084339;28;20024;-75
2022/08/26 07:32:25;;;;;;;13.00;12.00;;;;;;;;;;5087669;28;20039;-75
2022/08/26 07:34:51;;;;;;;12.80;11.90;;;;;;;;;;5085035;28;20032;-76
2022/08/26 07:37:17;;;;;;;13.35;12.25;;;;;;;;;;5085613;28;20032;-75
2022/08/26 07:39:43;;;;;;;13.35;12.02;;;;;;;;;;5088011;28;20063;-76
2022/08/26 07:42:12;;;;;;;13.07;12.07;;;;;;;;;;5086542;28;20118;-75
2022/08/26 07:44:39;;;;;;;12.85;11.80;;;;;;;;;;5086764;28;20047;-76
2022/08/26 07:47:07;;;;;;;13.45;12.15;;;;;;;;;;5086485;28;20036;-76
2022/08/26 07:49:33;;;;;;;13.63;12.63;;;;;;;;;;5083456;28;20027;-76
2022/08/26 07:51:58;;;;;;;14.10;12.75;;;;;;;;;;5083679;28;20296;-75
2022/08/26 07:54:24;;;;;;;13.10;12.10;;;;;;;;;;5083450;28;20035;-75
2022/08/26 07:56:50;;;;;;;13.23;11.38;;;;;;;;;;5087778;28;20515;-76
2022/08/26 07:59:17;;;;;;;13.75;12.43;;;;;;;;;;5086856;28;20114;-75
2022/08/26 08:01:43;;;;;;;13.52;12.38;;;;;;;;;;5081613;28;20082;-75
2022/08/26 08:04:09;;;;;;;13.13;12.02;;;;;;;;;;5081644;28;20499;-75
2022/08/26 08:06:36;;;;;;;13.15;12.00;;;;;;;;;;5087472;28;20122;-75
2022/08/26 08:09:02;;;;;;;12.88;11.75;;;;;;;;;;5081968;28;20055;-75
2022/08/26 08:11:29;;;;;;;13.43;12.43;;;;;;;;;;5086821;28;20032;-76
2022/08/26 08:13:56;;;;;;;14.07;12.80;;;;;;;;;;5086318;28;20031;-75
2022/08/26 08:16:23;;;;;;;13.80;12.30;;;;;;;;;;5085239;28;20028;-76
2022/08/26 08:18:49;;;;;;;12.82;11.80;;;;;;;;;;5085648;28;20036;-75
2022/08/26 08:21:16;;;;;;;12.50;11.57;;;;;;;;;;5096222;28;20478;-75
2022/08/26 08:23:41;;;;;;;12.45;11.45;;;;;;;;;;5086501;28;20035;-75
2022/08/26 08:26:09;;;;;;;13.18;12.00;;;;;;;;;;5085892;28;20089;-74
2022/08/26 08:28:36;;;;;;;13.63;12.53;;;;;;;;;;5087708;28;20060;-76
2022/08/26 08:31:03;;;;;;;13.15;11.93;;;;;;;;;;5087350;28;20229;-76
2022/08/26 08:33:30;;;;;;;12.45;11.45;;;;;;;;;;5085088;28;20038;-76
2022/08/26 08:35:57;;;;;;;13.13;12.13;;;;;;;;;;5087481;28;20051;-76
2022/08/26 08:38:23;;;;;;;13.45;12.27;;;;;;;;;;5087257;28;20028;-75
2022/08/26 08:40:49;;;;;;;13.30;12.05;;;;;;;;;;5085463;28;20047;-75
2022/08/26 08:43:32;;;;;;;12.35;11.45;;;;;;;;;;5085887;28;20036;-75
2022/08/26 08:46:06;;;;;;;13.02;12.10;;;;;;;;;;5087143;28;20043;-74
2022/08/26 08:48:40;;;;;;;12.85;11.65;;;;;;;;;;5087478;28;20027;-75
2022/08/26 08:51:12;;;;;;;13.27;12.20;;;;;;;;;;5082667;28;20119;-75
2022/08/26 08:53:44;;;;;;;13.45;12.30;;;;;;;;;;5087406;28;20047;-75
2022/08/26 08:56:25;;;;;;;12.70;11.80;;;;;;;;;;5084453;28;20036;-75
2022/08/26 08:59:14;;;;;;;13.43;12.18;;;;;;;;;;5084987;28;20051;-75
2022/08/26 09:01:58;;;;;;;13.38;12.27;;;;;;;;;;5084268;28;20062;-75
2022/08/26 09:05:01;;;;;;;13.50;11.50;;;;;;;;;;5087283;28;20036;-75
2022/08/26 09:07:43;;;;;;;12.10;11.20;;;;;;;;;;5084202;28;20447;-75
2022/08/26 09:10:42;;;;;;;12.98;11.82;;;;;;;;;;5082272;28;20024;-75
2022/08/26 09:13:12;;;;;;;12.52;11.73;;;;;;;;;;5087040;28;20650;-75
2022/08/26 09:15:48;;;;;;;13.23;12.23;;;;;;;;;;5081023;28;20542;-75
2022/08/26 09:18:29;;;;;;;13.07;11.88;;;;;;;;;;5083184;28;20047;-75
2022/08/26 09:21:07;;;;;;;12.18;11.27;;;;;;;;;;5086878;28;20206;-75
2022/08/26 09:23:35;;;;;;;12.40;11.60;;;;;;;;;;5087554;28;20039;-75
2022/08/26 09:26:24;;;;;;;12.55;11.55;;;;;;;;;;5089914;28;20097;-75
2022/08/26 09:29:17;;;;;;;11.45;10.65;;;;;;;;;;5089818;28;20036;-75
2022/08/26 09:31:44;;;;;;;13.02;11.10;;;;;;;;;;5081843;28;20111;-75
2022/08/26 09:34:20;;;;;;;11.60;10.80;;;;;;;;;;5086651;28;20055;-75
2022/08/26 09:36:52;;;;;;;11.88;11.07;;;;;;;;;;5089168;28;20032;-75
2022/08/26 09:39:26;;;;;;;12.30;11.40;;;;;;;;;;5087535;28;20036;-75
2022/08/26 09:42:12;;;;;;;11.90;10.77;;;;;;;;;;5088709;28;20043;-74
2022/08/26 09:44:59;;;;;;;11.45;10.75;;;;;;;;;;5087637;28;20048;-75
2022/08/26 09:47:44;;;;;;;12.15;11.13;;;;;;;;;;5085938;28;20031;-75
2022/08/26 09:50:27;;;;;;;11.93;10.98;;;;;;;;;;5087667;28;20538;-75
2022/08/26 09:53:15;;;;;;;12.23;11.13;;;;;;;;;;5089234;28;20129;-75
2022/08/26 09:55:43;;;;;;;;;;;;;;;;;;5085628;28;20116;-75
2022/08/26 09:58:37;;;;;;;13.10;11.83;;;;;;;;;;5088990;28;20335;-75
2022/08/26 10:01:06;;;;;;;14.77;11.60;;;;;;;;;;5086294;28;20043;-75
2022/08/26 10:03:35;;;;;;;15.68;10.63;;;;;;;;;;5090093;28;20028;-75
2022/08/26 10:06:18;;;;;;;15.10;10.65;;;;;;;;;;5085936;28;20047;-75
2022/08/26 10:08:54;;;;;;;12.35;11.00;;;;;;;;;;5087600;28;20433;-75
2022/08/26 10:11:35;;;;;;;12.85;10.52;;;;;;;;;;5080673;28;20036;-75
2022/08/26 10:14:17;;;;;;;12.73;10.68;;;;;;;;;;5088501;28;20115;-75
2022/08/26 10:16:53;;;;;;;14.95;11.38;;;;;;;;;;5088061;28;20157;-75
2022/08/26 10:19:25;;;;;;;11.07;10.10;;;;;;;;;;5088225;28;20028;-75
2022/08/26 10:21:56;;;;;;;11.68;10.48;;;;;;;;;;5089467;28;20097;-75
2022/08/26 10:24:54;;;;;;;12.35;10.25;;;;;;;;;;5089771;28;20040;-74
2022/08/26 10:27:36;;;;;;;13.73;10.55;;;;;;;;;;5084396;28;20048;-75
2022/08/26 10:30:06;;;;;;;11.25;10.15;;;;;;;;;;5088782;28;20484;-75
2022/08/26 10:32:45;;;;;;;14.32;10.80;;;;;;;;;;5088400;28;20028;-75
2022/08/26 10:35:14;;;;;;;12.20;11.00;;;;;;;;;;5088326;28;20165;-75
2022/08/26 10:37:46;;;;;;;13.18;11.18;;;;;;;;;;5084136;28;20666;-75
2022/08/26 10:40:18;;;;;;;14.93;11.02;;;;;;;;;;5089210;28;20067;-75
2022/08/26 10:43:02;;;;;;;13.15;11.13;;;;;;;;;;5088998;28;20040;-75
2022/08/26 10:45:32;;;;;;;11.82;10.63;;;;;;;;;;5099096;22;20120;-69
2022/08/26 10:48:11;;;;;;;11.48;10.20;;;;;;;;;;5086528;28;20032;-69
2022/08/26 10:50:42;;;;;;;14.68;10.82;;;;;;;;;;5089299;28;20493;-69
2022/08/26 10:53:17;;;;;;;14.57;11.15;;;;;;;;;;5085500;28;20031;-69
2022/08/26 10:56:00;;;;;;;11.70;10.50;;;;;;;;;;5064691;28;20494;-69
2022/08/26 10:58:30;;;;;;;12.95;10.25;;;;;;;;;;5062697;28;20311;-68
2022/08/26 11:04:11;;;;;;;13.68;10.63;;;;;;;;;;5073122;28;20044;-68
2022/08/26 11:06:37;;;;;;;12.48;11.30;;;;;;;;;;5063762;28;20053;-68
2022/08/26 11:09:07;;;;;;;11.82;10.65;;;;;;;;;;5071033;28;20033;-68
2022/08/26 11:11:51;;;;;;;15.82;10.65;;;;;;;;;;5073644;28;20040;-68
2022/08/26 11:14:37;;;;;;;11.60;10.38;;;;;;;;;;5067757;28;20560;-69
2022/08/26 11:17:02;;;;;;;12.15;11.02;;;;;;;;;;5075101;28;20036;-68
2022/08/26 11:19:38;;;;;;;12.50;10.18;;;;;;;;;;5071762;28;20036;-69
2022/08/26 11:22:29;;;;;;;13.65;10.75;;;;;;;;;;5064864;28;20044;-68
2022/08/26 11:24:55;;;;;;;11.95;10.75;;;;;;;;;;5065475;28;20024;-68
2022/08/26 11:27:35;;;;;;;11.63;10.52;;;;;;;;;;5061865;28;20044;-68
2022/08/26 11:30:33;;;;;;;12.07;10.18;;;;;;;;;;5067463;28;20044;-68
2022/08/26 11:32:59;;;;;;;13.70;11.20;;;;;;;;;;5060629;28;20369;-68
2022/08/26 11:35:24;;;;;;;12.63;10.85;;;;;;;;;;5064830;28;20487;-68
2022/08/26 11:37:56;;;;;;;13.90;10.80;;;;;;;;;;5070161;28;20040;-68
2022/08/26 11:40:37;;;;;;;13.65;10.85;;;;;;;;;;5077894;28;20028;-68
2022/08/26 11:43:22;;;;;;;12.52;11.07;;;;;;;;;;5077057;28;20147;-67
2022/08/26 11:46:05;;;;;;;12.38;11.23;;;;;;;;;;5072759;28;20422;-67
2022/08/26 11:48:33;;;;;;;18.67;12.98;;;;;;;;;;5068923;28;20487;-67
2022/08/26 11:51:23;;;;;;;13.27;11.98;;;;;;;;;;5069007;28;20036;-67
2022/08/26 11:53:50;;;;;;;13.65;12.25;;;;;;;;;;5063940;28;20127;-67
2022/08/26 11:56:21;;;;;;;14.48;12.45;;;;;;;;;;5070314;28;20037;-68
2022/08/26 11:58:48;;;;;;;12.32;11.13;;;;;;;;;;5067059;28;20040;-67
2022/08/26 12:01:26;;;;;;;17.33;12.25;;;;;;;;;;5078671;28;20035;-68
2022/08/26 12:03:52;;;;;;;14.55;12.57;;;;;;;;;;5086994;28;20127;-67
2022/08/26 12:06:29;;;;;;;12.95;11.60;;;;;;;;;;5072303;28;20407;-68
2022/08/26 12:09:01;;;;;;;13.10;11.68;;;;;;;;;;5066300;28;20306;-67
2022/08/26 12:11:32;;;;;;;13.05;11.30;;;;;;;;;;5073974;28;20063;-68
2022/08/26 12:14:05;;;;;;;13.45;12.05;;;;;;;;;;5085520;28;20032;-68
2022/08/26 12:16:35;;;;;;;12.88;11.75;;;;;;;;;;5063217;28;20123;-68
2022/08/26 12:19:20;;;;;;;11.73;10.82;;;;;;;;;;5072707;28;20073;-68
2022/08/26 12:21:47;;;;;;;12.77;10.77;;;;;;;;;;5061982;28;20043;-68
2022/08/26 12:24:17;;;;;;;12.45;11.13;;;;;;;;;;5074784;28;20028;-68
2022/08/26 12:26:43;;;;;;;14.43;11.52;;;;;;;;;;5070466;28;20057;-67
2022/08/26 12:29:21;;;;;;;12.80;11.63;;;;;;;;;;5078434;28;20090;-67
2022/08/26 12:31:46;;;;;;;14.98;12.18;;;;;;;;;;5083475;28;20095;-67
2022/08/26 12:34:17;;;;;;;13.45;12.13;;;;;;;;;;5066166;28;20114;-69
2022/08/26 12:36:46;;;;;;;12.45;11.32;;;;;;;;;;5069094;28;20040;-69
2022/08/26 12:39:24;;;;;;;14.93;12.15;;;;;;;;;;5076465;28;20152;-68
2022/08/26 12:41:54;;;;;;;13.45;12.43;;;;;;;;;;5083630;28;20040;-69
2022/08/26 12:44:35;;;;;;;16.23;12.25;;;;;;;;;;5070783;28;20033;-68
2022/08/26 12:47:10;;;;;;;13.85;12.55;;;;;;;;;;5074372;28;20043;-69
2022/08/26 12:49:39;;;;;;;13.50;12.05;;;;;;;;;;5084508;28;20112;-69
2022/08/26 12:52:28;;;;;;;14.15;12.70;;;;;;;;;;5064854;28;20509;-69
2022/08/26 12:55:07;;;;;;;14.02;12.38;;;;;;;;;;5069234;28;20028;-69
2022/08/26 12:57:36;;;;;;;13.88;12.40;;;;;;;;;;5088290;28;20036;-69
2022/08/26 13:00:26;;;;;;;15.90;12.43;;;;;;;;;;5071439;28;20467;-69
2022/08/26 13:02:52;;;;;;;14.13;11.45;;;;;;;;;;5079784;28;20128;-69
2022/08/26 13:05:23;;;;;;;12.70;11.55;;;;;;;;;;5087463;28;20126;-68
2022/08/26 13:08:12;;;;;;;14.55;12.13;;;;;;;;;;5082516;28;20040;-68
2022/08/26 13:10:41;;;;;;;13.00;11.63;;;;;;;;;;5068326;28;20040;-68
2022/08/26 13:13:07;;;;;;;12.75;11.52;;;;;;;;;;5069899;28;20036;-68
2022/08/26 13:15:32;;;;;;;12.98;11.73;;;;;;;;;;5069688;28;20650;-68
2022/08/26 13:17:58;;;;;;;11.90;10.80;;;;;;;;;;5067473;28;20036;-68
2022/08/26 13:20:24;;;;;;;14.30;11.23;;;;;;;;;;5067269;28;20025;-68
2022/08/26 13:22:49;;;;;;;12.00;10.80;;;;;;;;;;5065390;28;20047;-68
2022/08/26 13:25:16;;;;;;;15.68;11.38;;;;;;;;;;5066706;28;20146;-68
2022/08/26 13:27:41;;;;;;;12.15;11.07;;;;;;;;;;5066464;28;20475;-68
2022/08/26 13:30:08;;;;;;;14.40;11.40;;;;;;;;;;5078658;28;20103;-68
2022/08/26 13:32:35;;;;;;;12.77;11.48;;;;;;;;;;5070500;28;20415;-68
2022/08/26 13:35:01;;;;;;;15.77;11.70;;;;;;;;;;5068976;28;20039;-68
2022/08/26 13:37:27;;;;;;;16.52;10.98;;;;;;;;;;5067505;28;20140;-68
2022/08/26 13:39:53;;;;;;;13.63;11.65;;;;;;;;;;5064061;28;20830;-68
2022/08/26 13:42:20;;;;;;;11.73;10.73;;;;;;;;;;5067798;28;20036;-68
2022/08/26 13:44:49;;;;;;;14.65;11.75;;;;;;;;;;5067560;28;20037;-68
2022/08/26 13:47:16;;;;;;;13.55;12.13;;;;;;;;;;5063768;28;20071;-68
2022/08/26 13:49:42;;;;;;;14.00;12.07;;;;;;;;;;5065345;28;20064;-68
2022/08/26 13:52:12;;;;;;;13.77;12.30;;;;;;;;;;5061185;28;20512;-67
2022/08/26 13:54:37;;;;;;;14.27;12.30;;;;;;;;;;5063159;28;20072;-67
2022/08/26 13:57:04;;;;;;;13.27;12.05;;;;;;;;;;5064183;28;20521;-68
2022/08/26 13:59:30;;;;;;;14.13;12.10;;;;;;;;;;5063328;28;20040;-68
2022/08/26 14:01:57;;;;;;;13.18;12.00;;;;;;;;;;5066357;28;20036;-67
2022/08/26 14:04:23;;;;;;;13.93;12.65;;;;;;;;;;5065785;28;20083;-67
2022/08/26 14:06:49;;;;;;;17.48;12.48;;;;;;;;;;5061578;28;20462;-67
2022/08/26 14:09:14;;;;;;;13.88;12.68;;;;;;;;;;5066674;28;20600;-67
2022/08/26 14:11:40;;;;;;;15.88;12.60;;;;;;;;;;5062706;28;20032;-67
2022/08/26 14:14:06;;;;;;;16.55;12.32;;;;;;;;;;5064253;28;20098;-67
2022/08/26 14:16:36;;;;;;;18.50;12.90;;;;;;;;;;5064282;28;20044;-67
2022/08/26 14:19:04;;;;;;;13.57;12.18;;;;;;;;;;5064036;28;20028;-68
2022/08/26 14:21:33;;;;;;;13.38;12.20;;;;;;;;;;5071749;28;20206;-67
2022/08/26 14:23:59;;;;;;;14.45;12.77;;;;;;;;;;5068964;28;20455;-67
2022/08/26 14:26:25;;;;;;;12.27;11.18;;;;;;;;;;5063771;28;20523;-67
2022/08/26 14:28:50;;;;;;;14.50;11.90;;;;;;;;;;5062447;28;20036;-67
2022/08/26 14:31:16;;;;;;;17.90;12.77;;;;;;;;;;5067543;28;20040;-67
2022/08/26 14:33:42;;;;;;;15.00;12.75;;;;;;;;;;5060779;28;20539;-67
2022/08/26 14:36:27;;;;;;;14.32;12.80;;;;;;;;;;5062507;28;20086;-67
2022/08/26 14:38:54;;;;;;;13.25;11.90;;;;;;;;;;5065478;28;20470;-67
2022/08/26 14:41:21;;;;;;;14.65;11.98;;;;;;;;;;5065647;28;20059;-67
2022/08/26 14:43:58;;;;;;;14.50;12.57;;;;;;;;;;5065813;28;20115;-67